createdAt,value
2023-04-11T04:23:44.293Z,100690.38
2023-04-11T04:25:13.235Z,100693.66
2023-04-11T04:26:30.138Z,100690.53
2023-04-11T04:40:22.867Z,100674.91
2023-04-11T04:46:26.689Z,100664.88
2023-04-11T04:48:04.606Z,100667.25
2023-04-11T04:50:19.977Z,100674.22
2023-04-11T04:51:37.329Z,100668.09
2023-04-11T05:06:14.378Z,100673.72
2023-04-11T05:07:21.756Z,100673.94
2023-04-11T05:08:34.785Z,100678.06
2023-04-11T05:09:44.261Z,100674.06
2023-04-11T05:10:59.753Z,100671.06
2023-04-11T05:16:56.952Z,100673.50
2023-04-11T05:18:07.538Z,100664.22
2023-04-11T05:19:11.140Z,100658.53
2023-04-11T05:20:24.594Z,100660.13
2023-04-11T05:21:35.759Z,100655.56
2023-04-11T05:22:52.431Z,100656.22
2023-04-11T05:24:05.007Z,100655.00
2023-04-11T05:25:14.960Z,100659.31
2023-04-11T05:26:37.469Z,100650.22
2023-04-11T05:28:17.675Z,100654.59
2023-04-11T05:31:14.963Z,100655.44
2023-04-11T05:33:06.958Z,100659.31
2023-04-11T05:34:23.687Z,100654.22
2023-04-11T05:38:34.878Z,100645.50
2023-04-11T05:40:44.317Z,100648.25
2023-04-11T05:54:16.719Z,100658.34
2023-04-11T05:55:19.124Z,100654.94
2023-04-11T05:56:21.029Z,100653.13
2023-04-11T05:57:23.635Z,100654.94
2023-04-11T05:58:25.808Z,100645.25
2023-04-11T05:59:28.978Z,100658.06
2023-04-11T06:00:38.691Z,100660.47
2023-04-11T06:01:41.101Z,100647.34
2023-04-11T06:06:34.710Z,100645.09
2023-04-11T06:07:44.150Z,100651.28
2023-04-11T06:08:51.387Z,100647.34
2023-04-11T06:09:53.484Z,100645.78
2023-04-11T06:11:05.043Z,100639.25
2023-04-11T06:12:09.464Z,100649.72
2023-04-11T06:13:11.471Z,100648.94
2023-04-11T06:14:20.475Z,100651.31
2023-04-11T06:15:27.294Z,100643.53
2023-04-11T06:16:29.676Z,100642.28
2023-04-11T06:17:31.758Z,100639.88
2023-04-11T06:18:33.614Z,100645.06
2023-04-11T06:19:38.498Z,100647.97
2023-04-11T06:20:40.600Z,100645.94
2023-04-11T06:21:42.471Z,100642.59
2023-04-11T06:22:50.808Z,100644.72
2023-04-11T06:23:57.122Z,100642.88
2023-04-11T06:24:59.212Z,100645.25
2023-04-11T06:26:01.215Z,100645.13
2023-04-11T06:27:03.691Z,100650.19
2023-04-11T06:28:05.854Z,100647.75
2023-04-11T06:29:07.768Z,100646.25
2023-04-11T06:30:09.991Z,100648.47
2023-04-11T06:31:12.094Z,100663.44
2023-04-11T06:32:17.259Z,100653.41
2023-04-11T06:33:19.264Z,100658.31
2023-04-11T06:34:21.400Z,100658.19
2023-04-11T06:35:25.082Z,100651.91
2023-04-11T06:36:27.511Z,100646.63
2023-04-11T06:37:29.521Z,100648.59
2023-04-11T06:38:31.445Z,100642.56
2023-04-11T06:39:34.541Z,100639.97
2023-04-11T06:40:36.659Z,100644.44
2023-04-11T06:41:38.453Z,100645.03
2023-04-11T06:42:40.453Z,100645.75
2023-04-11T06:43:42.333Z,100647.03
2023-04-11T06:44:45.938Z,100646.94
2023-04-11T06:45:49.685Z,100652.03
2023-04-11T06:46:51.766Z,100644.19
2023-04-11T06:47:57.985Z,100637.63
2023-04-11T06:49:00.001Z,100634.75
2023-04-11T06:50:02.061Z,100640.97
2023-04-11T06:51:05.845Z,100650.75
2023-04-11T06:52:07.844Z,100643.91
2023-04-11T06:53:10.211Z,100644.69
2023-04-11T06:54:12.012Z,100644.72
2023-04-11T06:55:15.639Z,100641.41
2023-04-11T06:56:17.657Z,100637.72
2023-04-11T06:57:19.538Z,100643.00
2023-04-11T06:58:22.577Z,100641.22
2023-04-11T06:59:24.855Z,100642.47
2023-04-11T07:00:27.303Z,100647.13
2023-04-11T07:01:35.675Z,100640.09
2023-04-11T07:02:39.369Z,100642.91
2023-04-11T07:03:41.515Z,100647.25
2023-04-11T07:04:43.650Z,100636.31
2023-04-11T07:05:45.766Z,100635.72
2023-04-11T07:06:47.966Z,100632.53
2023-04-11T07:07:51.240Z,100643.78
2023-04-11T07:08:53.058Z,100629.88
2023-04-11T07:09:54.872Z,100632.81
2023-04-11T07:10:56.997Z,100634.88
2023-04-11T07:11:58.846Z,100631.69
2023-04-11T07:13:00.814Z,100637.66
2023-04-11T07:14:02.724Z,100642.72
2023-04-11T07:15:05.413Z,100641.41
2023-04-11T07:16:08.074Z,100630.91
2023-04-11T07:17:10.016Z,100639.03
2023-04-11T07:18:15.448Z,100634.00
2023-04-11T07:19:17.520Z,100634.28
2023-04-11T07:20:19.559Z,100633.16
2023-04-11T07:21:22.201Z,100629.56
2023-04-11T07:22:24.077Z,100630.66
2023-04-11T07:23:26.508Z,100631.41
2023-04-11T07:24:30.545Z,100621.94
2023-04-11T07:25:33.950Z,100626.28
2023-04-11T07:26:38.762Z,100628.06
2023-04-11T07:27:43.867Z,100619.50
2023-04-11T07:28:47.481Z,100629.91
2023-04-11T07:29:49.623Z,100625.03
2023-04-11T07:30:52.116Z,100628.28
2023-04-11T07:31:53.987Z,100632.38
2023-04-11T07:32:57.252Z,100630.50
2023-04-11T07:33:59.201Z,100635.09
2023-04-11T07:35:01.202Z,100635.25
2023-04-11T07:36:04.133Z,100629.78
2023-04-11T07:37:06.482Z,100620.22
2023-04-11T07:38:09.533Z,100620.75
2023-04-11T07:39:13.588Z,100625.47
2023-04-11T07:40:15.657Z,100625.78
2023-04-11T07:41:17.706Z,100619.00
2023-04-11T07:42:19.487Z,100625.06
2023-04-11T07:43:21.549Z,100625.03
2023-04-11T07:44:24.002Z,100626.94
2023-04-11T07:45:26.108Z,100622.50
2023-04-11T07:46:27.891Z,100621.72
2023-04-11T07:47:29.682Z,100623.06
2023-04-11T07:48:32.284Z,100620.59
2023-04-11T07:49:34.388Z,100620.13
2023-04-11T07:50:36.391Z,100622.88
2023-04-11T07:51:38.547Z,100616.59
2023-04-11T07:52:40.516Z,100618.16
2023-04-11T07:53:42.397Z,100614.00
2023-04-11T07:54:44.381Z,100615.84
2023-04-11T07:55:46.220Z,100610.81
2023-04-11T07:56:47.980Z,100613.00
2023-04-11T07:57:53.379Z,100616.06
2023-04-11T07:58:55.207Z,100617.72
2023-04-11T07:59:59.882Z,100616.09
2023-04-11T08:01:02.726Z,100612.16
2023-04-11T08:02:06.592Z,100606.38
2023-04-11T08:03:11.310Z,100607.09
2023-04-11T08:04:13.825Z,100607.66
2023-04-11T08:05:16.138Z,100605.53
2023-04-11T08:06:18.081Z,100603.50
2023-04-11T08:07:19.879Z,100599.41
2023-04-11T08:08:21.936Z,100598.06
2023-04-11T08:09:23.780Z,100585.84
2023-04-11T08:10:25.844Z,100596.00
2023-04-11T08:11:27.775Z,100599.25
2023-04-11T08:12:29.637Z,100588.56
2023-04-11T08:13:32.137Z,100594.13
2023-04-11T08:14:34.080Z,100588.53
2023-04-11T08:15:37.141Z,100579.97
2023-04-11T08:16:39.112Z,100590.59
2023-04-11T08:17:43.819Z,100588.44
2023-04-11T08:18:45.891Z,100583.88
2023-04-11T08:19:47.949Z,100587.00
2023-04-11T08:20:49.884Z,100589.88
2023-04-11T08:21:52.767Z,100587.06
2023-04-11T08:22:55.893Z,100584.88
2023-04-11T08:23:57.979Z,100583.09
2023-04-11T08:25:00.006Z,100580.31
2023-04-11T08:26:01.782Z,100570.38
2023-04-11T08:27:03.668Z,100569.09
2023-04-11T08:28:06.161Z,100575.44
2023-04-11T08:29:11.388Z,100570.03
2023-04-11T08:30:13.966Z,100574.81
2023-04-11T08:31:16.243Z,100571.38
2023-04-11T08:32:18.204Z,100560.19
2023-04-11T08:33:23.349Z,100552.59
2023-04-11T08:34:25.495Z,100567.53
2023-04-11T08:35:27.834Z,100558.41
2023-04-11T08:36:30.157Z,100565.84
2023-04-11T08:37:33.379Z,100561.28
2023-04-11T08:38:36.584Z,100561.22
2023-04-11T08:39:38.449Z,100559.97
2023-04-11T08:40:40.316Z,100556.25
2023-04-11T08:41:42.583Z,100561.00
2023-04-11T08:42:44.899Z,100554.91
2023-04-11T08:43:47.996Z,100553.09
2023-04-11T08:44:58.148Z,100550.56
2023-04-11T08:46:04.210Z,100560.25
2023-04-11T08:47:06.695Z,100555.47
2023-04-11T08:48:12.384Z,100552.84
2023-04-11T08:49:14.405Z,100552.97
2023-04-11T08:50:16.233Z,100551.97
2023-04-11T08:51:23.132Z,100553.56
2023-04-11T08:52:25.935Z,100554.38
2023-04-11T08:53:30.210Z,100552.25
2023-04-11T08:54:32.013Z,100550.50
2023-04-11T08:55:34.367Z,100548.63
2023-04-11T08:56:42.175Z,100544.56
2023-04-11T08:57:44.065Z,100541.25
2023-04-11T08:58:48.120Z,100536.28
2023-04-11T08:59:53.399Z,100535.75
2023-04-11T09:00:55.389Z,100538.59
2023-04-11T09:02:09.309Z,100537.47
2023-04-11T09:03:13.341Z,100536.53
2023-04-11T09:04:15.377Z,100533.28
2023-04-11T09:05:28.593Z,100529.03
2023-04-11T09:06:31.096Z,100532.06
2023-04-11T09:07:48.378Z,100528.50
2023-04-11T09:08:50.954Z,100538.75
2023-04-11T09:09:52.787Z,100518.44
2023-04-11T09:11:01.389Z,100522.59
2023-04-11T09:12:04.366Z,100523.06
2023-04-11T09:13:26.564Z,100518.25
2023-04-11T09:14:29.200Z,100520.94
2023-04-11T09:15:31.901Z,100521.25
2023-04-11T09:16:34.213Z,100512.69
2023-04-11T09:17:42.513Z,100514.41
2023-04-11T09:18:47.071Z,100507.59
2023-04-11T09:19:49.599Z,100514.38
2023-04-11T09:21:02.987Z,100516.66
2023-04-11T09:22:07.748Z,100505.94
2023-04-11T09:23:22.266Z,100507.31
2023-04-11T09:24:25.750Z,100502.63
2023-04-11T09:25:28.320Z,100503.53
2023-04-11T09:26:30.882Z,100496.25
2023-04-11T09:27:32.754Z,100506.78
2023-04-11T09:28:54.865Z,100499.50
2023-04-11T09:29:56.998Z,100507.97
2023-04-11T09:30:58.811Z,100497.22
2023-04-11T09:32:00.768Z,100502.53
2023-04-11T09:33:22.779Z,100500.97
2023-04-11T09:34:27.552Z,100508.59
2023-04-11T09:35:29.736Z,100511.47
2023-04-11T09:36:31.601Z,100501.19
2023-04-11T09:37:57.963Z,100501.63
2023-04-11T09:39:00.246Z,100491.13
2023-04-11T09:40:03.463Z,100494.00
2023-04-11T09:41:06.140Z,100498.53
2023-04-11T09:42:28.361Z,100489.72
2023-04-11T09:43:50.518Z,100483.03
2023-04-11T09:44:53.248Z,100476.47
2023-04-11T09:46:11.783Z,100485.72
2023-04-11T09:47:13.785Z,100484.25
2023-04-11T09:48:16.501Z,100485.06
2023-04-11T09:49:18.478Z,100485.50
2023-04-11T09:50:20.962Z,100485.22
2023-04-11T09:52:30.824Z,100471.75
2023-04-11T09:53:35.275Z,100469.50
2023-04-11T09:54:37.875Z,100471.63
2023-04-11T09:55:40.093Z,100467.03
2023-04-11T09:56:42.935Z,100462.16
2023-04-11T09:57:46.988Z,100459.88
2023-04-11T09:58:50.016Z,100458.13
2023-04-11T09:59:53.564Z,100460.72
2023-04-11T10:00:56.692Z,100464.63
2023-04-11T10:01:58.992Z,100453.91
2023-04-11T10:03:01.359Z,100460.09
2023-04-11T10:04:04.637Z,100451.31
2023-04-11T10:05:08.438Z,100451.91
2023-04-11T10:06:16.565Z,100453.28
2023-04-11T10:07:19.697Z,100454.78
2023-04-11T10:08:32.738Z,100442.69
2023-04-11T10:09:39.685Z,100446.75
2023-04-11T10:10:44.174Z,100440.13
2023-04-11T10:11:49.243Z,100439.72
2023-04-11T10:12:51.753Z,100443.06
2023-04-11T10:13:58.111Z,100439.88
2023-04-11T10:15:08.407Z,100441.69
2023-04-11T10:16:15.993Z,100441.31
2023-04-11T10:17:22.776Z,100436.22
2023-04-11T10:18:27.423Z,100433.59
2023-04-11T10:19:29.314Z,100433.91
2023-04-11T10:20:50.984Z,100434.50
2023-04-11T10:21:53.112Z,100426.22
2023-04-11T10:22:59.313Z,100426.47
2023-04-11T10:24:09.947Z,100419.53
2023-04-11T10:25:15.512Z,100422.19
2023-04-11T10:27:07.716Z,100421.88
2023-04-11T10:28:30.939Z,100417.16
2023-04-11T10:29:34.889Z,100417.84
2023-04-11T10:30:46.245Z,100418.22
2023-04-11T10:32:20.789Z,100423.06
2023-04-11T10:33:26.109Z,100420.31
2023-04-11T10:34:27.883Z,100422.25
2023-04-11T10:35:30.965Z,100423.06
2023-04-11T10:37:06.305Z,100419.59
2023-04-11T10:38:47.993Z,100417.75
2023-04-11T10:40:00.726Z,100414.94
2023-04-11T10:41:25.038Z,100415.13
2023-04-11T10:42:55.252Z,100408.44
2023-04-11T10:44:23.551Z,100413.00
2023-04-11T10:49:05.116Z,100396.66
2023-04-11T10:50:28.897Z,100395.19
2023-04-11T10:51:34.767Z,100398.63
2023-04-11T10:52:38.431Z,100397.03
2023-04-11T10:53:40.984Z,100391.28
2023-04-11T10:54:44.630Z,100389.97
2023-04-11T10:55:48.693Z,100384.56
2023-04-11T10:56:55.158Z,100385.03
2023-04-11T10:58:11.468Z,100385.75
2023-04-11T10:59:32.083Z,100384.25
2023-04-11T11:00:52.475Z,100387.47
2023-04-11T11:01:55.954Z,100386.81
2023-04-11T11:02:58.392Z,100382.59
2023-04-11T11:04:00.995Z,100380.53
2023-04-11T11:05:15.070Z,100374.88
2023-04-11T11:06:17.215Z,100369.16
2023-04-11T11:07:19.050Z,100372.13
2023-04-11T11:08:30.545Z,100370.72
2023-04-11T11:09:33.451Z,100372.63
2023-04-11T11:10:36.941Z,100372.84
2023-04-11T11:11:38.712Z,100372.13
2023-04-11T11:12:56.141Z,100365.59
2023-04-11T11:14:01.709Z,100370.03
2023-04-11T11:15:13.477Z,100371.44
2023-04-11T11:16:17.792Z,100365.38
2023-04-11T11:17:19.746Z,100366.94
2023-04-11T11:18:22.826Z,100362.19
2023-04-11T11:19:24.679Z,100358.41
2023-04-11T11:20:26.473Z,100359.31
2023-04-11T11:21:30.121Z,100356.63
2023-04-11T11:22:31.915Z,100354.31
2023-04-11T11:23:36.085Z,100344.22
2023-04-11T11:24:38.457Z,100347.38
2023-04-11T11:25:40.386Z,100345.75
2023-04-11T11:26:44.010Z,100346.50
2023-04-11T11:27:46.140Z,100344.13
2023-04-11T11:28:48.966Z,100342.38
2023-04-11T11:29:51.563Z,100343.09
2023-04-11T11:30:57.638Z,100341.53
2023-04-11T11:32:00.449Z,100347.25
2023-04-11T11:33:22.407Z,100342.63
2023-04-11T11:34:31.516Z,100341.16
2023-04-11T11:35:33.174Z,100337.81
2023-04-11T11:36:39.074Z,100337.47
2023-04-11T11:37:41.944Z,100334.06
2023-04-11T11:38:47.158Z,100345.88
2023-04-11T11:39:49.929Z,100341.59
2023-04-11T11:40:52.307Z,100332.91
2023-04-11T11:41:54.534Z,100334.31
2023-04-11T11:42:56.345Z,100334.56
2023-04-11T11:43:59.363Z,100330.44
2023-04-11T11:45:20.554Z,100333.63
2023-04-11T11:46:22.445Z,100335.13
2023-04-11T11:47:25.835Z,100331.41
2023-04-11T11:48:30.509Z,100334.81
2023-04-11T11:49:52.646Z,100322.50
2023-04-11T11:50:56.595Z,100325.94
2023-04-11T11:51:58.582Z,100330.38
2023-04-11T11:53:19.677Z,100322.56
2023-04-11T11:54:22.959Z,100319.03
2023-04-11T11:55:24.903Z,100314.81
2023-04-11T11:56:26.786Z,100315.06
2023-04-11T11:57:30.880Z,100318.56
2023-04-11T11:58:43.540Z,100310.38
2023-04-11T11:59:45.732Z,100312.56
2023-04-11T12:00:50.375Z,100305.59
2023-04-11T12:01:52.512Z,100308.84
2023-04-11T12:06:45.990Z,100301.41
2023-04-11T12:07:54.890Z,100300.41
2023-04-11T12:09:06.071Z,100301.91
2023-04-11T12:10:11.988Z,100304.81
2023-04-11T12:11:16.870Z,100300.34
2023-04-11T12:12:25.458Z,100297.16
2023-04-11T12:13:37.559Z,100297.03
2023-04-11T12:14:40.202Z,100295.47
2023-04-11T12:15:46.832Z,100290.84
2023-04-11T12:16:50.370Z,100288.88
2023-04-11T12:17:54.174Z,100284.84
2023-04-11T12:19:01.142Z,100293.97
2023-04-11T12:20:18.758Z,100286.13
2023-04-11T12:21:21.066Z,100290.66
2023-04-11T12:22:22.968Z,100281.00
2023-04-11T12:23:24.746Z,100284.44
2023-04-11T12:24:26.755Z,100276.97
2023-04-11T12:25:28.796Z,100277.06
2023-04-11T12:26:30.683Z,100273.81
2023-04-11T12:27:36.697Z,100279.97
2023-04-11T12:28:43.545Z,100270.41
2023-04-11T12:29:46.767Z,100268.66
2023-04-11T12:30:48.661Z,100266.47
2023-04-11T12:31:50.811Z,100266.13
2023-04-11T12:32:52.980Z,100268.34
2023-04-11T12:33:55.300Z,100265.47
2023-04-11T12:34:57.458Z,100262.25
2023-04-11T12:35:59.287Z,100269.31
2023-04-11T12:37:01.163Z,100267.28
2023-04-11T12:38:04.258Z,100261.75
2023-04-11T12:39:07.331Z,100261.41
2023-04-11T12:40:12.176Z,100262.69
2023-04-11T12:41:31.735Z,100260.66
2023-04-11T12:42:39.049Z,100252.47
2023-04-11T12:43:47.486Z,100257.00
2023-04-11T12:44:50.928Z,100261.63
2023-04-11T12:45:53.321Z,100266.63
2023-04-11T12:46:55.190Z,100268.94
2023-04-11T12:47:57.102Z,100265.09
2023-04-11T12:49:00.852Z,100268.03
2023-04-11T12:50:03.689Z,100261.41
2023-04-11T12:51:05.890Z,100253.72
2023-04-11T12:52:11.143Z,100257.66
2023-04-11T12:53:12.930Z,100261.88
2023-04-11T12:54:18.708Z,100259.38
2023-04-11T12:55:21.764Z,100251.28
2023-04-11T12:56:23.776Z,100258.47
2023-04-11T12:57:25.967Z,100262.28
2023-04-11T12:58:28.736Z,100251.16
2023-04-11T12:59:32.333Z,100247.84
2023-04-11T13:00:34.515Z,100248.72
2023-04-11T13:01:37.046Z,100240.69
2023-04-11T13:02:43.799Z,100244.66
2023-04-11T13:03:46.936Z,100252.16
2023-04-11T13:04:55.006Z,100246.63
2023-04-11T13:05:57.013Z,100244.19
2023-04-11T13:07:02.618Z,100248.16
2023-04-11T13:08:04.754Z,100245.97
2023-04-11T13:09:07.806Z,100249.50
2023-04-11T13:10:10.440Z,100249.28
2023-04-11T13:11:12.258Z,100242.75
2023-04-11T13:12:14.414Z,100242.59
2023-04-11T13:13:18.428Z,100242.69
2023-04-11T13:14:21.060Z,100244.47
2023-04-11T13:15:25.553Z,100241.09
2023-04-11T13:16:27.415Z,100239.28
2023-04-11T13:17:29.231Z,100242.88
2023-04-11T13:18:31.131Z,100245.25
2023-04-11T13:19:33.190Z,100240.03
2023-04-11T13:20:35.118Z,100240.09
2023-04-11T13:21:37.432Z,100239.72
2023-04-11T13:22:43.507Z,100231.38
2023-04-11T13:23:45.932Z,100227.97
2023-04-11T13:24:47.726Z,100233.16
2023-04-11T13:25:49.681Z,100238.63
2023-04-11T13:26:51.569Z,100239.34
2023-04-11T13:27:53.473Z,100237.88
2023-04-11T13:28:56.071Z,100230.22
2023-04-11T13:29:58.182Z,100226.44
2023-04-11T13:31:00.125Z,100229.75
2023-04-11T13:32:01.999Z,100223.66
2023-04-11T13:33:05.516Z,100228.59
2023-04-11T13:34:07.509Z,100228.41
2023-04-11T13:35:09.582Z,100225.72
2023-04-11T13:36:11.589Z,100222.28
2023-04-11T13:37:13.453Z,100230.53
2023-04-11T13:38:15.399Z,100223.84
2023-04-11T13:39:19.466Z,100225.22
2023-04-11T13:40:21.302Z,100224.47
2023-04-11T13:41:24.182Z,100228.50
2023-04-11T13:42:26.124Z,100221.06
2023-04-11T13:43:28.449Z,100224.66
2023-04-11T13:44:30.533Z,100222.63
2023-04-11T13:45:32.496Z,100222.47
2023-04-11T13:46:34.602Z,100224.56
2023-04-11T13:47:38.762Z,100222.13
2023-04-11T13:48:41.095Z,100223.44
2023-04-11T13:49:43.236Z,100228.03
2023-04-11T13:50:45.124Z,100217.53
2023-04-11T13:51:46.956Z,100221.41
2023-04-11T13:52:48.778Z,100219.03
2023-04-11T13:53:50.815Z,100215.09
2023-04-11T13:54:52.662Z,100214.66
2023-04-11T13:55:55.038Z,100215.00
2023-04-11T13:56:56.957Z,100218.25
2023-04-11T13:57:58.795Z,100210.03
2023-04-11T13:59:00.698Z,100217.28
2023-04-11T14:00:06.821Z,100220.53
2023-04-11T14:01:08.779Z,100215.09
2023-04-11T14:02:11.107Z,100208.66
2023-04-11T14:03:13.207Z,100212.63
2023-04-11T14:04:15.706Z,100211.34
2023-04-11T14:05:17.920Z,100202.81
2023-04-11T14:06:19.842Z,100214.00
2023-04-11T14:07:21.812Z,100203.66
2023-04-11T14:08:23.655Z,100214.00
2023-04-11T14:09:26.180Z,100208.47
2023-04-11T14:10:28.245Z,100206.81
2023-04-11T14:11:29.976Z,100206.81
2023-04-11T14:12:31.831Z,100212.56
2023-04-11T14:13:33.762Z,100200.13
2023-04-11T14:14:37.196Z,100209.25
2023-04-11T14:15:39.127Z,100202.44
2023-04-11T14:16:41.183Z,100203.59
2023-04-11T14:17:44.067Z,100213.50
2023-04-11T14:18:46.009Z,100207.72
2023-04-11T14:19:47.963Z,100202.06
2023-04-11T14:20:49.950Z,100209.50
2023-04-11T14:21:52.067Z,100208.00
2023-04-11T14:22:56.360Z,100214.06
2023-04-11T14:24:02.291Z,100211.22
2023-04-11T14:25:05.657Z,100203.09
2023-04-11T14:26:07.558Z,100202.31
2023-04-11T14:27:09.734Z,100205.59
2023-04-11T14:28:12.055Z,100204.75
2023-04-11T14:29:14.263Z,100205.25
2023-04-11T14:30:16.974Z,100203.81
2023-04-11T14:31:25.004Z,100203.78
2023-04-11T14:32:27.989Z,100202.31
2023-04-11T14:33:31.940Z,100200.31
2023-04-11T14:35:02.555Z,100193.81
2023-04-11T14:36:07.417Z,100203.44
2023-04-11T14:37:09.670Z,100197.91
2023-04-11T14:38:11.644Z,100194.59
2023-04-11T14:39:14.094Z,100206.00
2023-04-11T14:40:17.726Z,100194.81
2023-04-11T14:41:19.723Z,100198.41
2023-04-11T14:42:21.831Z,100199.38
2023-04-11T14:43:27.422Z,100196.66
2023-04-11T14:44:29.868Z,100201.38
2023-04-11T14:45:32.180Z,100202.19
2023-04-11T14:46:35.668Z,100196.78
2023-04-11T14:47:40.035Z,100201.22
2023-04-11T14:48:41.868Z,100188.00
2023-04-11T14:49:44.116Z,100191.59
2023-04-11T14:50:48.633Z,100194.59
2023-04-11T14:52:07.034Z,100191.63
2023-04-11T14:53:09.357Z,100190.81
2023-04-11T14:54:11.570Z,100186.16
2023-04-11T14:55:13.496Z,100178.13
2023-04-11T14:56:15.658Z,100185.00
2023-04-11T14:57:52.363Z,100179.91
2023-04-11T14:58:54.859Z,100183.50
2023-04-11T14:59:59.556Z,100175.19
2023-04-11T15:01:01.471Z,100184.78
2023-04-11T15:02:05.366Z,100181.59
2023-04-11T15:03:10.793Z,100180.94
2023-04-11T15:04:13.329Z,100180.22
2023-04-11T15:05:18.102Z,100174.63
2023-04-11T15:06:21.583Z,100173.09
2023-04-11T15:07:23.502Z,100178.72
2023-04-11T15:08:25.600Z,100179.16
2023-04-11T15:09:28.185Z,100181.19
2023-04-11T15:10:30.753Z,100177.28
2023-04-11T15:11:33.592Z,100178.00
2023-04-11T15:12:36.455Z,100181.63
2023-04-11T15:13:41.274Z,100186.06
2023-04-11T15:15:25.378Z,100175.69
2023-04-11T15:16:27.767Z,100179.91
2023-04-11T15:17:42.668Z,100176.78
2023-04-11T15:18:46.121Z,100180.78
2023-04-11T15:19:48.264Z,100178.38
2023-04-11T15:20:51.080Z,100168.88
2023-04-11T15:21:52.882Z,100176.09
2023-04-11T15:23:17.602Z,100176.09
2023-04-11T15:24:24.759Z,100180.09
2023-04-11T15:25:27.444Z,100171.00
2023-04-11T15:26:30.150Z,100176.97
2023-04-11T15:27:32.515Z,100174.59
2023-04-11T15:28:38.639Z,100171.84
2023-04-11T15:30:35.049Z,100169.91
2023-04-11T15:32:55.059Z,100178.69
2023-04-11T15:34:05.266Z,100172.38
2023-04-11T15:37:37.568Z,100173.66
2023-04-11T15:38:40.057Z,100164.06
2023-04-11T15:39:42.370Z,100176.44
2023-04-11T15:40:57.124Z,100176.44
2023-04-11T15:42:32.571Z,100171.69
2023-04-11T15:45:52.424Z,100171.81
2023-04-11T15:46:56.162Z,100177.00
2023-04-11T15:48:25.499Z,100172.66
2023-04-11T15:50:21.622Z,100174.25
2023-04-11T15:51:28.559Z,100176.25
2023-04-11T15:52:33.881Z,100181.03
2023-04-11T15:53:36.909Z,100177.47
2023-04-11T15:54:41.003Z,100171.50
2023-04-11T15:55:46.191Z,100171.09
2023-04-11T15:56:51.552Z,100171.09
2023-04-11T15:57:55.209Z,100170.72
2023-04-11T15:58:57.536Z,100171.09
2023-04-11T16:00:01.299Z,100172.72
2023-04-11T16:01:38.190Z,100171.13
2023-04-11T16:02:45.894Z,100166.00
2023-04-11T16:03:50.365Z,100171.22
2023-04-11T16:04:54.622Z,100172.41
2023-04-11T16:05:59.961Z,100174.81
2023-04-11T16:07:02.791Z,100170.50
2023-04-11T16:08:14.260Z,100174.06
2023-04-11T16:09:21.629Z,100171.72
2023-04-11T16:10:25.695Z,100173.69
2023-04-11T16:11:32.079Z,100173.75
2023-04-11T16:12:38.467Z,100177.38
2023-04-11T16:13:44.135Z,100170.63
2023-04-11T16:14:46.451Z,100179.38
2023-04-11T16:15:52.142Z,100171.44
2023-04-11T16:16:54.384Z,100173.44
2023-04-11T16:17:56.329Z,100170.66
2023-04-11T16:18:58.174Z,100174.63
2023-04-11T16:20:02.487Z,100170.69
2023-04-11T16:21:12.565Z,100174.69
2023-04-11T16:22:14.378Z,100177.09
2023-04-11T16:23:18.810Z,100178.69
2023-04-11T16:24:21.366Z,100174.69
2023-04-11T16:25:23.146Z,100177.50
2023-04-11T16:26:27.020Z,100177.88
2023-04-11T16:27:29.263Z,100179.91
2023-04-11T16:28:31.067Z,100181.13
2023-04-11T16:29:35.276Z,100184.28
2023-04-11T16:30:37.390Z,100184.28
2023-04-11T16:31:39.386Z,100181.06
2023-04-11T16:32:43.064Z,100180.69
2023-04-11T16:33:47.906Z,100178.66
2023-04-11T16:34:52.053Z,100189.03
2023-04-11T16:35:53.820Z,100186.66
2023-04-11T16:36:58.589Z,100182.69
2023-04-11T16:38:00.713Z,100189.78
2023-04-11T16:39:04.261Z,100186.25
2023-04-11T16:40:11.495Z,100189.03
2023-04-11T16:41:16.385Z,100184.28
2023-04-11T16:42:18.923Z,100183.47
2023-04-11T16:43:20.853Z,100181.88
2023-04-11T16:44:38.755Z,100190.69
2023-04-11T16:45:50.751Z,100179.50
2023-04-11T16:46:58.125Z,100191.47
2023-04-11T16:48:00.509Z,100191.88
2023-04-11T16:49:02.402Z,100191.88
2023-04-11T16:50:35.308Z,100193.84
2023-04-11T16:53:14.308Z,100187.84
2023-04-11T16:54:27.065Z,100194.22
2023-04-11T16:55:28.957Z,100200.19
2023-04-11T16:56:35.630Z,100193.06
2023-04-11T16:58:13.896Z,100199.44
2023-04-11T17:05:10.901Z,100193.19
2023-04-11T17:08:03.520Z,100194.09
2023-04-11T17:09:20.223Z,100197.22
2023-04-11T17:33:28.643Z,100207.31
2023-04-11T17:34:57.989Z,100199.41
2023-04-11T17:36:06.213Z,100206.56
2023-04-11T17:37:10.364Z,100206.94
2023-04-11T17:40:44.630Z,100202.22
2023-04-11T17:43:03.360Z,100203.44
2023-04-11T17:44:31.019Z,100199.06
2023-04-11T17:46:09.105Z,100207.84
2023-04-11T17:47:19.962Z,100212.63
2023-04-11T17:48:30.054Z,100205.09
2023-04-11T17:50:08.051Z,100210.66
2023-04-11T17:51:21.252Z,100201.13
2023-04-11T17:52:41.782Z,100203.53
2023-04-11T17:54:05.073Z,100206.72
2023-04-11T17:56:29.299Z,100211.88
2023-04-11T17:58:14.136Z,100203.56
2023-04-11T18:00:48.347Z,100210.72
2023-04-11T18:13:53.824Z,100202.41
2023-04-11T18:15:07.166Z,100198.03
2023-04-11T18:18:49.914Z,100204.41
2023-04-11T18:28:45.953Z,100206.00
2023-04-11T18:31:15.715Z,100202.81
2023-04-11T18:34:38.544Z,100209.19
2023-04-11T18:41:02.204Z,100201.63
2023-04-11T18:45:25.985Z,100200.44
2023-04-11T18:46:38.294Z,100193.31
2023-04-11T18:48:23.309Z,100203.63
2023-04-11T18:54:24.755Z,100194.91
2023-04-11T19:04:05.968Z,100199.63
2023-04-11T19:08:35.162Z,100199.25
2023-04-11T19:09:39.322Z,100198.06
2023-04-11T19:10:47.397Z,100197.63
2023-04-11T19:11:52.638Z,100199.22
2023-04-11T19:16:02.575Z,100190.09
2023-04-11T19:17:06.403Z,100198.03
2023-04-11T19:18:10.698Z,100194.84
2023-04-11T19:19:13.886Z,100194.44
2023-04-11T19:20:26.683Z,100194.06
2023-04-11T19:21:29.695Z,100201.19
2023-04-11T19:22:32.992Z,100198.41
2023-04-11T19:23:40.092Z,100193.63
2023-04-11T19:24:50.977Z,100188.88
2023-04-11T19:26:06.286Z,100190.84
2023-04-11T19:27:24.679Z,100183.31
2023-04-11T19:28:29.519Z,100185.66
2023-04-11T19:29:35.764Z,100190.81
2023-04-11T19:30:50.391Z,100182.47
2023-04-11T19:31:55.603Z,100188.84
2023-04-11T19:32:59.039Z,100189.25
2023-04-11T19:34:06.470Z,100184.06
2023-04-11T19:36:03.634Z,100184.03
2023-04-11T19:37:06.937Z,100180.88
2023-04-11T19:39:53.585Z,100178.47
2023-04-11T19:41:10.947Z,100178.84
2023-04-11T19:42:16.877Z,100179.66
2023-04-11T19:43:22.453Z,100193.53
2023-04-11T19:44:55.406Z,100192.34
2023-04-11T19:46:24.829Z,100191.53
2023-04-11T19:47:28.611Z,100188.38
2023-04-11T19:48:37.923Z,100187.56
2023-04-11T19:49:44.057Z,100187.56